Time;durP1;ratioP1;P1;durP2;ratioP2;P2;SDS_P1;SDS_P2;PMS_P1;PMS_P2;Temp;Humidity;BMP_temperature;BMP_pressure;BME280_temperature;BME280_humidity;BME280_pressure;Samples;Min_cycle;Max_cycle;Signal;HPM_P1;HPM_P2
2022/04/24 00:00:08;;;;;;;6.97;3.30;;;9.00;73.00;;;;;;4961929;28;20742;-79
2022/04/24 00:02:33;;;;;;;5.05;2.88;;;9.00;73.60;;;;;;4959456;28;20041;-74
2022/04/24 00:05:02;;;;;;;5.82;3.00;;;9.00;72.90;;;;;;4959768;28;20035;-75
2022/04/24 00:07:29;;;;;;;6.43;3.15;;;9.00;73.20;;;;;;4952927;28;20066;-73
2022/04/24 00:09:56;;;;;;;5.47;3.28;;;9.00;73.60;;;;;;4957800;28;20405;-80
2022/04/24 00:12:21;;;;;;;4.68;3.30;;;8.90;73.00;;;;;;4958026;28;20039;-80
2022/04/24 00:14:48;;;;;;;5.10;3.10;;;9.00;72.80;;;;;;4956785;28;20030;-81
2022/04/24 00:17:16;;;;;;;6.57;3.35;;;9.00;72.80;;;;;;4955749;28;20027;-80
2022/04/24 00:19:43;;;;;;;5.45;3.58;;;9.00;72.30;;;;;;4959952;28;20623;-80
2022/04/24 00:22:09;;;;;;;4.82;2.83;;;9.00;72.90;;;;;;4959914;28;20129;-80
2022/04/24 00:24:35;;;;;;;4.00;2.50;;;9.00;73.00;;;;;;4962884;28;20558;-80
2022/04/24 00:27:01;;;;;;;4.95;3.08;;;9.00;73.40;;;;;;4959117;28;20035;-79
2022/04/24 00:29:26;;;;;;;5.35;3.45;;;8.90;73.80;;;;;;4951286;28;20415;-79
2022/04/24 00:31:52;;;;;;;4.55;3.13;;;8.80;74.40;;;;;;4953352;28;20042;-77
2022/04/24 00:34:18;;;;;;;6.13;3.08;;;8.80;75.20;;;;;;4957727;28;20440;-79
2022/04/24 00:36:45;;;;;;;6.78;3.42;;;8.70;74.80;;;;;;4954982;28;20050;-78
2022/04/24 00:39:12;;;;;;;5.10;3.42;;;8.70;75.20;;;;;;4957050;28;20097;-79
2022/04/24 00:41:49;;;;;;;5.18;3.25;;;8.70;75.10;;;;;;4953891;28;20062;-78
2022/04/24 00:44:16;;;;;;;5.72;2.88;;;8.60;75.00;;;;;;4952911;28;20034;-79
2022/04/24 00:46:45;;;;;;;7.78;3.67;;;8.50;75.60;;;;;;4955375;28;20039;-79
2022/04/24 00:49:12;;;;;;;5.07;3.28;;;8.50;76.20;;;;;;4952566;28;20046;-78
2022/04/24 00:51:38;;;;;;;7.03;3.40;;;8.40;76.60;;;;;;4954649;28;20050;-78
2022/04/24 00:54:08;;;;;;;5.13;3.47;;;8.40;76.90;;;;;;4953410;28;20101;-78
2022/04/24 00:56:35;;;;;;;5.05;3.53;;;8.30;77.40;;;;;;4957125;28;20034;-78
2022/04/24 00:59:03;;;;;;;4.65;3.20;;;8.20;77.50;;;;;;4954824;28;20962;-78
2022/04/24 01:01:29;;;;;;;7.28;3.30;;;8.20;78.00;;;;;;4957808;28;20038;-78
2022/04/24 01:04:02;;;;;;;6.40;3.45;;;8.20;77.70;;;;;;4956672;28;20082;-71
2022/04/24 01:06:29;;;;;;;5.38;3.20;;;8.20;77.80;;;;;;4958074;28;20039;-78
2022/04/24 01:08:55;;;;;;;5.65;3.42;;;8.20;78.00;;;;;;4955156;28;20034;-77
2022/04/24 01:11:21;;;;;;;4.45;3.28;;;8.20;78.40;;;;;;4957172;28;20065;-77
2022/04/24 01:13:47;;;;;;;6.38;3.28;;;8.20;78.60;;;;;;4955048;28;20023;-78
2022/04/24 01:16:13;;;;;;;6.45;3.00;;;8.20;78.60;;;;;;4937429;28;20029;-78
2022/04/24 01:18:40;;;;;;;4.28;3.13;;;8.10;79.10;;;;;;4953716;28;20038;-78
2022/04/24 01:21:07;;;;;;;6.57;3.50;;;8.10;79.40;;;;;;4952436;28;20031;-78
2022/04/24 01:23:34;;;;;;;5.30;2.97;;;8.10;79.20;;;;;;4941641;28;20570;-79
2022/04/24 01:25:59;;;;;;;8.65;3.97;;;8.10;79.30;;;;;;4955022;28;20121;-78
2022/04/24 01:28:25;;;;;;;6.55;3.47;;;8.10;79.40;;;;;;4954511;28;20027;-78
2022/04/24 01:30:51;;;;;;;7.65;3.03;;;8.10;78.70;;;;;;4948864;28;20550;-78
2022/04/24 01:33:16;;;;;;;6.30;3.65;;;8.10;79.00;;;;;;4950144;28;20027;-78
2022/04/24 01:35:42;;;;;;;5.60;3.35;;;8.10;79.00;;;;;;4960495;28;20882;-78
2022/04/24 01:38:08;;;;;;;6.50;3.25;;;8.10;79.10;;;;;;4956234;28;20038;-78
2022/04/24 01:40:33;;;;;;;6.65;3.33;;;8.10;79.10;;;;;;4930003;29;20020;-78
2022/04/24 01:42:59;;;;;;;7.25;3.70;;;8.00;79.60;;;;;;4956301;28;20455;-78
2022/04/24 01:45:25;;;;;;;6.50;3.83;;;8.00;79.80;;;;;;4951305;28;20142;-78
2022/04/24 01:47:50;;;;;;;9.00;3.55;;;8.00;79.60;;;;;;4933942;28;20117;-79
2022/04/24 01:50:16;;;;;;;5.35;3.58;;;7.90;80.00;;;;;;4947767;28;20070;-78
2022/04/24 01:52:42;;;;;;;6.70;3.80;;;8.00;80.10;;;;;;4947183;28;20808;-78
2022/04/24 01:55:07;;;;;;;8.55;3.25;;;8.00;80.00;;;;;;4957924;28;20066;-78
2022/04/24 01:57:33;;;;;;;5.35;3.40;;;7.90;80.40;;;;;;4943334;28;20039;-78
2022/04/24 01:59:59;;;;;;;8.95;3.60;;;7.90;80.50;;;;;;4954977;28;20037;-78
2022/04/24 02:02:24;;;;;;;10.95;3.83;;;7.90;80.70;;;;;;4953077;28;20575;-78
2022/04/24 02:04:50;;;;;;;4.13;3.20;;;7.80;80.80;;;;;;4934054;28;20031;-78
2022/04/24 02:07:16;;;;;;;5.50;3.50;;;7.80;81.20;;;;;;4949426;28;20822;-78
2022/04/24 02:09:42;;;;;;;9.75;4.00;;;7.80;81.40;;;;;;4954620;28;20027;-78
2022/04/24 02:12:08;;;;;;;5.68;3.47;;;7.80;81.80;;;;;;4955734;28;20053;-78
2022/04/24 02:14:34;;;;;;;6.20;3.40;;;7.70;81.90;;;;;;4955774;28;20027;-77
2022/04/24 02:16:59;;;;;;;6.55;3.97;;;7.70;81.70;;;;;;4958709;28;20027;-78
2022/04/24 02:19:25;;;;;;;8.88;3.72;;;7.70;82.20;;;;;;4957109;28;20558;-78
2022/04/24 02:21:51;;;;;;;5.72;3.63;;;7.70;82.40;;;;;;4951221;28;20181;-78
2022/04/24 02:24:17;;;;;;;8.82;3.97;;;7.70;82.20;;;;;;4947842;28;20038;-78
2022/04/24 02:26:42;;;;;;;7.68;3.70;;;7.70;82.20;;;;;;4954316;28;20142;-78
2022/04/24 02:29:08;;;;;;;5.30;3.67;;;7.70;82.60;;;;;;4950058;28;20035;-78
2022/04/24 02:31:34;;;;;;;8.95;3.92;;;7.70;82.40;;;;;;4956002;28;20530;-78
2022/04/24 02:33:59;;;;;;;6.35;3.42;;;7.70;82.50;;;;;;4952800;28;20027;-78
2022/04/24 02:36:25;;;;;;;7.10;3.60;;;7.70;82.30;;;;;;4943023;28;20027;-78
2022/04/24 02:38:51;;;;;;;5.93;3.47;;;7.70;82.40;;;;;;4950870;28;20031;-78
2022/04/24 02:41:16;;;;;;;5.57;3.67;;;7.60;82.80;;;;;;4955823;28;20033;-78
2022/04/24 02:43:42;;;;;;;6.88;3.78;;;7.50;83.10;;;;;;4955915;28;20109;-78
2022/04/24 02:46:08;;;;;;;5.18;3.53;;;7.50;83.40;;;;;;4950922;28;20459;-78
2022/04/24 02:48:33;;;;;;;7.13;3.92;;;7.50;83.70;;;;;;4955125;28;20043;-78
2022/04/24 02:50:59;;;;;;;9.27;3.88;;;7.40;83.50;;;;;;4939423;28;20031;-78
2022/04/24 02:53:25;;;;;;;5.60;3.88;;;7.40;84.20;;;;;;4956408;28;20047;-78
2022/04/24 02:55:51;;;;;;;8.52;3.60;;;7.40;84.30;;;;;;4955601;28;20410;-78
2022/04/24 02:58:19;;;;;;;10.10;4.00;;;7.40;83.90;;;;;;4941147;28;20121;-78
2022/04/24 03:00:49;;;;;;;8.65;4.00;;;7.40;83.90;;;;;;4956865;28;20280;-78
2022/04/24 03:03:19;;;;;;;6.90;3.80;;;7.40;84.00;;;;;;4956747;28;20061;-78
2022/04/24 03:05:49;;;;;;;6.88;4.05;;;7.30;84.30;;;;;;4947254;28;20062;-78
2022/04/24 03:08:16;;;;;;;6.80;3.88;;;7.30;84.50;;;;;;4962224;28;20304;-77
2022/04/24 03:10:42;;;;;;;6.38;3.65;;;7.30;84.60;;;;;;4961179;28;20113;-78
2022/04/24 03:13:08;;;;;;;5.05;3.33;;;7.20;84.90;;;;;;4964362;28;20530;-78
2022/04/24 03:15:34;;;;;;;8.57;3.83;;;7.30;85.00;;;;;;4957677;28;20026;-78
2022/04/24 03:18:00;;;;;;;5.57;3.50;;;7.20;84.70;;;;;;4962176;28;20783;-78
2022/04/24 03:20:26;;;;;;;10.45;3.67;;;7.20;84.80;;;;;;4960612;28;20026;-78
2022/04/24 03:22:51;;;;;;;11.10;4.30;;;7.10;85.60;;;;;;4961459;28;20108;-78
2022/04/24 03:25:17;;;;;;;5.72;4.03;;;7.10;85.60;;;;;;4959790;28;20033;-78
2022/04/24 03:27:43;;;;;;;11.73;4.30;;;7.10;85.60;;;;;;4958226;28;20895;-78
2022/04/24 03:30:09;;;;;;;9.23;3.72;;;7.10;85.60;;;;;;4959547;28;20605;-78
2022/04/24 03:32:35;;;;;;;8.10;4.28;;;7.20;85.30;;;;;;4958253;28;20031;-78
2022/04/24 03:35:03;;;;;;;7.05;4.30;;;7.10;85.20;;;;;;4959926;28;20031;-78
2022/04/24 03:37:29;;;;;;;9.48;4.70;;;7.10;85.60;;;;;;4963140;28;20078;-78
2022/04/24 03:39:55;;;;;;;8.70;4.68;;;7.10;85.50;;;;;;4961296;28;20471;-78
2022/04/24 03:42:21;;;;;;;7.55;4.35;;;7.10;85.90;;;;;;4958637;28;20069;-79
2022/04/24 03:44:47;;;;;;;6.20;3.60;;;7.10;85.60;;;;;;4959527;28;20042;-78
2022/04/24 03:47:14;;;;;;;7.03;3.80;;;7.00;86.00;;;;;;4960914;28;20035;-78
2022/04/24 03:49:41;;;;;;;8.05;4.13;;;7.00;85.90;;;;;;4957959;28;20125;-78
2022/04/24 03:52:07;;;;;;;6.53;3.70;;;7.00;86.10;;;;;;4960213;28;20031;-78
2022/04/24 03:54:32;;;;;;;13.18;4.30;;;7.00;86.00;;;;;;4942381;28;20033;-78
2022/04/24 03:56:58;;;;;;;6.70;3.95;;;7.00;86.10;;;;;;4955064;28;20024;-78
2022/04/24 03:59:24;;;;;;;9.27;4.40;;;7.00;86.10;;;;;;4957889;28;20491;-78
2022/04/24 04:01:49;;;;;;;7.35;3.97;;;7.00;86.20;;;;;;4955601;28;20034;-78
2022/04/24 04:04:15;;;;;;;6.80;3.78;;;7.00;86.00;;;;;;4958141;28;20169;-78
2022/04/24 04:06:41;;;;;;;5.65;3.63;;;7.00;85.70;;;;;;4961493;28;20038;-78
2022/04/24 04:09:07;;;;;;;6.88;4.00;;;7.00;86.10;;;;;;4959106;28;20027;-78
2022/04/24 04:11:33;;;;;;;10.35;4.85;;;7.00;85.90;;;;;;4957244;28;20480;-78
2022/04/24 04:13:58;;;;;;;8.75;4.47;;;7.00;85.90;;;;;;4957394;28;20487;-78
2022/04/24 04:16:25;;;;;;;6.22;4.32;;;6.90;86.60;;;;;;4959711;28;20953;-78
2022/04/24 04:18:51;;;;;;;8.38;4.10;;;6.90;86.30;;;;;;4954990;28;20110;-78
2022/04/24 04:21:16;;;;;;;6.10;4.35;;;7.00;86.30;;;;;;4952719;28;20387;-78
2022/04/24 04:23:42;;;;;;;8.07;4.13;;;7.00;86.70;;;;;;4958222;28;20111;-77
2022/04/24 04:26:08;;;;;;;6.95;3.50;;;7.00;86.30;;;;;;4944032;28;20892;-78
2022/04/24 04:28:33;;;;;;;9.70;4.40;;;7.00;86.40;;;;;;4957625;28;20109;-78
2022/04/24 04:30:59;;;;;;;7.78;4.15;;;7.10;86.40;;;;;;4959873;28;20037;-78
2022/04/24 04:33:25;;;;;;;10.48;4.78;;;7.20;86.00;;;;;;4957145;28;20023;-78
2022/04/24 04:35:50;;;;;;;6.82;4.22;;;7.20;85.80;;;;;;4954477;28;20185;-78
2022/04/24 04:38:16;;;;;;;11.63;4.45;;;7.20;85.50;;;;;;4958001;28;20057;-78
2022/04/24 04:40:42;;;;;;;7.03;4.28;;;7.20;85.20;;;;;;4955530;28;20035;-78
2022/04/24 04:43:07;;;;;;;9.98;4.75;;;7.30;85.30;;;;;;4952773;28;20040;-78
2022/04/24 04:45:33;;;;;;;8.32;4.38;;;7.30;85.30;;;;;;4958719;28;20042;-78
2022/04/24 04:47:59;;;;;;;10.15;4.13;;;7.30;85.10;;;;;;4958689;28;20033;-78
2022/04/24 04:50:24;;;;;;;8.27;4.40;;;7.40;85.20;;;;;;4959722;28;20031;-78
2022/04/24 04:52:50;;;;;;;9.02;4.97;;;7.50;84.80;;;;;;4957584;28;20031;-78
2022/04/24 04:55:16;;;;;;;6.95;4.20;;;7.60;84.50;;;;;;4943411;28;20019;-78
2022/04/24 04:57:42;;;;;;;10.85;4.30;;;7.70;84.30;;;;;;4957791;28;20026;-78
2022/04/24 05:00:11;;;;;;;8.60;4.38;;;7.80;83.90;;;;;;4957356;28;20043;-78
2022/04/24 05:02:37;;;;;;;9.30;5.05;;;7.80;83.20;;;;;;4954915;28;20046;-78
2022/04/24 05:05:04;;;;;;;7.68;4.55;;;7.90;83.20;;;;;;4953600;28;20035;-78
2022/04/24 05:07:31;;;;;;;6.85;3.95;;;8.00;82.80;;;;;;4959929;28;20134;-78
2022/04/24 05:09:56;;;;;;;21.50;5.88;;;8.20;82.30;;;;;;4955576;28;20633;-78
2022/04/24 05:12:27;;;;;;;11.35;4.72;;;8.30;82.10;;;;;;4956608;28;20023;-78
2022/04/24 05:14:53;;;;;;;6.82;3.97;;;8.40;80.80;;;;;;4951949;28;20146;-78
2022/04/24 05:17:19;;;;;;;8.00;4.30;;;8.50;80.60;;;;;;4954156;28;20531;-78
2022/04/24 05:19:45;;;;;;;7.82;4.97;;;8.60;79.50;;;;;;4955527;28;20105;-78
2022/04/24 05:22:10;;;;;;;7.30;4.68;;;8.80;79.50;;;;;;4960307;28;20789;-78
2022/04/24 05:24:36;;;;;;;7.45;4.00;;;9.10;78.60;;;;;;4958374;28;20038;-78
2022/04/24 05:27:02;;;;;;;8.50;4.10;;;9.50;78.10;;;;;;4956437;28;20041;-78
2022/04/24 05:29:27;;;;;;;8.63;4.45;;;9.60;77.40;;;;;;4954353;28;20514;-78
2022/04/24 05:31:53;;;;;;;8.55;4.78;;;9.60;77.60;;;;;;4953552;28;20041;-78
2022/04/24 05:34:19;;;;;;;11.23;4.60;;;9.70;76.20;;;;;;4958089;28;20050;-78
2022/04/24 05:36:45;;;;;;;10.00;4.43;;;9.90;75.10;;;;;;4955540;28;20030;-78
2022/04/24 05:39:10;;;;;;;8.00;4.45;;;10.40;73.40;;;;;;4955502;28;20113;-78
2022/04/24 05:41:36;;;;;;;7.07;4.68;;;11.20;70.80;;;;;;4955678;28;20023;-79
2022/04/24 05:44:02;;;;;;;7.55;4.45;;;11.50;68.00;;;;;;4935635;28;20031;-79
2022/04/24 05:46:28;;;;;;;10.50;4.63;;;11.80;67.60;;;;;;4955562;28;20049;-78
2022/04/24 05:48:55;;;;;;;8.18;4.68;;;13.00;65.30;;;;;;4958294;28;20113;-78
2022/04/24 05:51:21;;;;;;;7.82;4.40;;;14.20;60.30;;;;;;4956835;28;20655;-78
2022/04/24 05:53:46;;;;;;;8.30;4.75;;;15.30;57.20;;;;;;4956049;28;20089;-78
2022/04/24 05:56:12;;;;;;;9.73;5.03;;;16.80;52.30;;;;;;4956809;28;20050;-78
2022/04/24 05:58:38;;;;;;;8.27;4.45;;;17.50;49.90;;;;;;4952861;28;20110;-79
2022/04/24 06:01:03;;;;;;;7.80;4.50;;;17.20;48.80;;;;;;4957198;28;20054;-78
2022/04/24 06:03:29;;;;;;;11.73;4.68;;;16.70;49.90;;;;;;4958023;28;20722;-78
2022/04/24 06:05:55;;;;;;;6.72;4.78;;;16.50;50.40;;;;;;4958941;28;20037;-78
2022/04/24 06:08:20;;;;;;;7.70;4.43;;;16.30;51.10;;;;;;4932497;28;20529;-78
2022/04/24 06:10:46;;;;;;;9.63;4.45;;;16.30;51.20;;;;;;4957610;28;20085;-78
2022/04/24 06:13:12;;;;;;;7.30;4.55;;;16.20;51.00;;;;;;4952761;28;20035;-79
2022/04/24 06:15:39;;;;;;;8.80;4.43;;;16.00;51.10;;;;;;4956397;28;20782;-78
2022/04/24 06:18:04;;;;;;;9.55;4.85;;;15.80;50.70;;;;;;4959820;28;20030;-78
2022/04/24 06:20:30;;;;;;;8.90;4.93;;;16.00;51.60;;;;;;4952829;28;20030;-75
2022/04/24 06:22:58;;;;;;;5.85;4.22;;;16.60;49.90;;;;;;4959586;28;20034;-78
2022/04/24 06:25:31;;;;;;;9.93;4.18;;;16.60;49.40;;;;;;4960124;28;20531;-78
2022/04/24 06:27:58;;;;;;;6.38;4.57;;;16.50;50.40;;;;;;4956527;28;20058;-79
2022/04/24 06:30:26;;;;;;;9.50;4.15;;;16.40;50.00;;;;;;4957220;28;20066;-78
2022/04/24 06:32:52;;;;;;;8.55;4.68;;;16.40;51.00;;;;;;4953558;28;20505;-78
2022/04/24 06:35:18;;;;;;;9.02;4.43;;;16.50;49.90;;;;;;4942797;28;20037;-78
2022/04/24 06:37:49;;;;;;;7.75;4.60;;;16.40;49.80;;;;;;4958048;28;20035;-78
2022/04/24 06:40:16;;;;;;;9.02;4.93;;;16.30;49.80;;;;;;4957159;28;20027;-76
2022/04/24 06:42:56;;;;;;;8.32;4.63;;;16.20;49.90;;;;;;4959031;28;20034;-78
2022/04/24 06:45:29;;;;;;;7.55;4.38;;;16.10;50.10;;;;;;4954362;28;20089;-78
2022/04/24 06:47:57;;;;;;;5.90;4.63;;;15.80;50.30;;;;;;4958138;28;20031;-78
2022/04/24 06:50:25;;;;;;;9.52;4.93;;;15.70;50.80;;;;;;4956273;28;20489;-78
2022/04/24 06:53:02;;;;;;;6.30;4.30;;;15.70;51.20;;;;;;4961202;28;20927;-78
2022/04/24 06:55:29;;;;;;;7.70;4.25;;;16.00;51.40;;;;;;4960082;28;20046;-78
2022/04/24 06:57:55;;;;;;;7.45;4.60;;;16.40;50.40;;;;;;4966360;28;20029;-78
2022/04/24 07:00:23;;;;;;;8.15;4.60;;;16.70;49.60;;;;;;4964696;28;20054;-79
2022/04/24 07:02:49;;;;;;;8.15;4.97;;;16.90;48.80;;;;;;4963831;28;20121;-78
2022/04/24 07:05:16;;;;;;;8.55;5.00;;;17.20;48.50;;;;;;4961956;28;20034;-77
2022/04/24 07:07:42;;;;;;;9.48;4.80;;;17.60;47.20;;;;;;4956013;28;20026;-72
2022/04/24 07:10:09;;;;;;;7.93;4.40;;;17.80;47.10;;;;;;4959294;28;20126;-75
2022/04/24 07:12:54;;;;;;;6.45;4.57;;;18.00;46.60;;;;;;4959695;28;20772;-76
2022/04/24 07:15:22;;;;;;;6.70;4.82;;;18.50;46.00;;;;;;4953758;28;20034;-78
2022/04/24 07:17:49;;;;;;;6.20;4.07;;;19.10;45.00;;;;;;4956511;28;20800;-68
2022/04/24 07:20:16;;;;;;;7.47;4.43;;;19.80;43.70;;;;;;4959412;28;20850;-73
2022/04/24 07:22:53;;;;;;;6.93;4.65;;;20.30;42.20;;;;;;4959896;28;20034;-71
2022/04/24 07:25:21;;;;;;;7.38;4.57;;;21.40;41.30;;;;;;4958632;28;20034;-71
2022/04/24 07:27:47;;;;;;;12.10;4.68;;;23.60;37.30;;;;;;4956909;28;20506;-72
2022/04/24 07:30:14;;;;;;;8.02;4.95;;;24.40;35.20;;;;;;4959098;28;20066;-71
2022/04/24 07:32:44;;;;;;;6.57;4.63;;;25.60;33.20;;;;;;4959089;28;20039;-72
2022/04/24 07:35:12;;;;;;;7.25;4.90;;;27.10;31.50;;;;;;4961308;28;20041;-71
2022/04/24 07:37:38;;;;;;;7.60;4.75;;;29.10;29.40;;;;;;4962871;28;20038;-71
2022/04/24 07:40:08;;;;;;;10.32;4.93;;;30.00;28.20;;;;;;4943985;28;20030;-72
2022/04/24 07:43:00;;;;;;;6.05;4.65;;;28.90;28.40;;;;;;4944782;28;20026;-71
2022/04/24 07:45:32;;;;;;;6.40;4.88;;;27.80;29.50;;;;;;4958525;28;20062;-71
2022/04/24 07:47:59;;;;;;;8.48;5.15;;;26.90;30.00;;;;;;4958299;28;20035;-71
2022/04/24 07:50:28;;;;;;;6.75;4.80;;;26.10;30.60;;;;;;4962714;28;20034;-71
2022/04/24 07:52:55;;;;;;;5.95;4.50;;;26.20;30.10;;;;;;4959519;28;20086;-72
2022/04/24 07:55:24;;;;;;;7.45;4.85;;;27.00;29.00;;;;;;4964019;28;20031;-72
2022/04/24 07:57:53;;;;;;;7.10;5.10;;;27.00;29.20;;;;;;4958655;28;20030;-72
2022/04/24 08:00:21;;;;;;;8.25;5.07;;;26.50;29.50;;;;;;4952491;28;20042;-72
2022/04/24 08:02:56;;;;;;;8.27;4.85;;;25.60;30.00;;;;;;4961164;28;20082;-72
2022/04/24 08:05:22;;;;;;;11.95;5.47;;;24.90;31.90;;;;;;4955467;28;20126;-72
2022/04/24 08:07:48;;;;;;;6.80;4.80;;;24.70;31.60;;;;;;4958205;28;20055;-72
2022/04/24 08:10:15;;;;;;;9.88;4.00;;;24.20;32.00;;;;;;4956736;28;20684;-72
2022/04/24 08:12:41;;;;;;;6.97;4.43;;;24.20;33.20;;;;;;4955449;28;20814;-72
2022/04/24 08:15:07;;;;;;;6.50;4.53;;;24.70;31.90;;;;;;4941454;28;20038;-69
2022/04/24 08:17:32;;;;;;;7.72;4.45;;;24.20;33.10;;;;;;4953903;28;20035;-68
2022/04/24 08:19:58;;;;;;;6.22;4.43;;;23.60;33.00;;;;;;4962142;28;20042;-72
2022/04/24 08:22:24;;;;;;;8.43;5.03;;;24.00;33.20;;;;;;4944363;28;20034;-73
2022/04/24 08:24:50;;;;;;;6.80;4.80;;;23.90;33.30;;;;;;4959073;28;20053;-73
2022/04/24 08:27:15;;;;;;;9.05;5.57;;;22.90;34.10;;;;;;4958259;28;20632;-71
2022/04/24 08:29:41;;;;;;;6.55;4.78;;;23.10;34.60;;;;;;4956852;28;20085;-70
2022/04/24 08:32:07;;;;;;;7.97;5.32;;;24.60;32.50;;;;;;4956368;28;20079;-74
2022/04/24 08:34:33;;;;;;;8.70;5.10;;;26.10;30.60;;;;;;4960295;28;20029;-74
2022/04/24 08:36:58;;;;;;;9.57;5.55;;;25.10;31.00;;;;;;4953760;28;20099;-73
2022/04/24 08:39:24;;;;;;;7.97;4.28;;;24.50;32.00;;;;;;4962691;28;20035;-73
2022/04/24 08:41:50;;;;;;;8.95;4.13;;;24.30;33.20;;;;;;4945470;28;20064;-74
2022/04/24 08:44:16;;;;;;;10.25;4.60;;;24.40;32.50;;;;;;4962134;28;20110;-73
2022/04/24 08:46:43;;;;;;;9.40;4.03;;;26.30;30.20;;;;;;4945331;28;20403;-74
2022/04/24 08:49:10;;;;;;;7.72;4.85;;;27.90;28.90;;;;;;4962152;28;20070;-74
2022/04/24 08:51:39;;;;;;;8.60;4.28;;;29.00;27.90;;;;;;4962295;28;20027;-74
2022/04/24 08:54:05;;;;;;;7.78;4.60;;;28.80;27.70;;;;;;4960899;28;20544;-76
2022/04/24 08:56:31;;;;;;;8.70;4.60;;;28.60;28.00;;;;;;4961477;28;20042;-74
2022/04/24 08:58:56;;;;;;;10.05;4.82;;;27.10;29.10;;;;;;4954541;28;20035;-67
2022/04/24 09:01:25;;;;;;;6.93;4.22;;;27.40;28.90;;;;;;4956708;28;20115;-72
2022/04/24 09:03:51;;;;;;;7.45;5.00;;;28.80;28.30;;;;;;4954742;28;20577;-72
2022/04/24 09:06:23;;;;;;;7.68;4.90;;;30.20;26.80;;;;;;4958218;28;20031;-69
2022/04/24 09:08:49;;;;;;;7.18;4.82;;;29.90;26.70;;;;;;4940494;28;20042;-76
2022/04/24 09:11:17;;;;;;;8.00;4.50;;;29.30;26.70;;;;;;4959349;28;20050;-76
2022/04/24 09:16:38;;;;;;;5.90;4.50;;;30.90;26.10;;;;;;4934975;29;20753;-76
2022/04/24 09:19:14;;;;;;;7.35;4.50;;;32.10;25.30;;;;;;4953786;28;20035;-76
2022/04/24 09:21:40;;;;;;;8.63;5.05;;;33.40;24.60;;;;;;4949258;28;20031;-76
2022/04/24 09:24:06;;;;;;;5.88;3.78;;;35.30;23.50;;;;;;4956783;28;20034;-76
2022/04/24 09:26:33;;;;;;;6.00;3.97;;;36.50;23.30;;;;;;4955745;28;20586;-76
2022/04/24 09:28:59;;;;;;;7.38;4.20;;;37.50;22.90;;;;;;4941853;28;20039;-77
2022/04/24 09:31:29;;;;;;;5.82;3.90;;;38.30;22.20;;;;;;4957646;28;20043;-70
2022/04/24 09:34:05;;;;;;;7.20;4.25;;;36.20;22.70;;;;;;4952652;28;20811;-74
2022/04/24 09:36:31;;;;;;;5.65;4.40;;;33.00;24.10;;;;;;4953199;28;20042;-74
2022/04/24 09:38:56;;;;;;;5.18;4.68;;;32.20;24.50;;;;;;4950621;28;20450;-74
2022/04/24 09:41:23;;;;;;;6.07;4.60;;;32.70;24.50;;;;;;4960250;28;20027;-74
2022/04/24 09:43:50;;;;;;;5.63;4.43;;;32.00;24.80;;;;;;4960236;28;20054;-74
2022/04/24 09:46:29;;;;;;;7.55;4.85;;;29.70;26.60;;;;;;4953953;28;20049;-73
2022/04/24 09:49:00;;;;;;;5.95;4.10;;;27.50;28.70;;;;;;4955860;28;20047;-73
2022/04/24 09:51:26;;;;;;;5.63;4.40;;;26.00;29.30;;;;;;4952879;28;20058;-72
2022/04/24 09:53:57;;;;;;;7.93;3.90;;;25.30;30.00;;;;;;4955985;28;20134;-73
2022/04/24 09:56:26;;;;;;;5.88;3.88;;;25.80;30.90;;;;;;4950809;28;20042;-74
2022/04/24 09:58:52;;;;;;;5.22;4.22;;;26.50;28.70;;;;;;4953078;28;20030;-74
2022/04/24 10:01:18;;;;;;;7.38;3.95;;;27.70;28.10;;;;;;4951036;28;20077;-74
2022/04/24 10:03:45;;;;;;;6.75;3.70;;;28.10;27.30;;;;;;4956522;28;20037;-74
2022/04/24 10:06:11;;;;;;;4.45;3.70;;;29.90;26.10;;;;;;4957358;28;20035;-74
2022/04/24 10:08:38;;;;;;;4.35;3.65;;;32.10;24.90;;;;;;4951781;28;20774;-74
2022/04/24 10:11:07;;;;;;;4.93;3.42;;;31.10;24.70;;;;;;4952995;28;20032;-74
2022/04/24 10:13:38;;;;;;;4.93;3.70;;;29.50;26.00;;;;;;4948303;28;20539;-74
2022/04/24 10:16:33;;;;;;;4.50;2.95;;;27.50;27.00;;;;;;4955095;28;20027;-74
2022/04/24 10:19:14;;;;;;;4.75;3.40;;;28.80;26.40;;;;;;4952062;28;20475;-75
2022/04/24 10:22:03;;;;;;;5.32;3.60;;;27.10;27.20;;;;;;4961990;28;20046;-80
2022/04/24 10:24:39;;;;;;;5.85;3.63;;;25.70;28.60;;;;;;4955520;28;20461;-80
2022/04/24 10:27:05;;;;;;;3.67;3.22;;;24.50;29.10;;;;;;4960208;28;20655;-81
2022/04/24 10:29:31;;;;;;;5.15;3.28;;;23.30;30.80;;;;;;4961543;28;20910;-81
2022/04/24 10:31:56;;;;;;;4.47;3.45;;;23.20;31.30;;;;;;4960615;28;20115;-80
2022/04/24 10:34:23;;;;;;;4.18;3.05;;;23.90;29.60;;;;;;4961094;28;20030;-80
2022/04/24 10:37:00;;;;;;;3.65;3.20;;;23.20;30.40;;;;;;4940213;29;20488;-79
2022/04/24 10:39:28;;;;;;;4.55;3.20;;;22.30;31.50;;;;;;4957666;28;20034;-80
2022/04/24 10:41:58;;;;;;;3.53;3.10;;;21.70;32.70;;;;;;4960957;28;20054;-79
2022/04/24 10:44:25;;;;;;;4.03;3.05;;;21.30;33.70;;;;;;4958053;28;20540;-80
2022/04/24 10:46:54;;;;;;;5.63;3.45;;;21.10;33.90;;;;;;4960995;28;20329;-79
2022/04/24 10:49:20;;;;;;;4.60;3.72;;;21.00;34.30;;;;;;4958242;28;20022;-80
2022/04/24 10:52:00;;;;;;;4.78;3.67;;;21.10;34.60;;;;;;4961324;28;20530;-80
2022/04/24 10:54:33;;;;;;;4.72;3.22;;;21.10;34.90;;;;;;4939375;28;20035;-85
2022/04/24 10:56:59;;;;;;;5.80;3.28;;;21.40;34.70;;;;;;4953837;28;20031;-68
2022/04/24 10:59:25;;;;;;;6.95;3.50;;;21.10;34.60;;;;;;4955243;28;20030;-75
2022/04/24 11:01:55;;;;;;;7.07;3.53;;;21.00;35.00;;;;;;4954087;28;20031;-74
2022/04/24 11:04:22;;;;;;;5.43;3.20;;;21.10;34.60;;;;;;4936823;28;20458;-75
2022/04/24 11:07:04;;;;;;;4.43;3.15;;;21.10;34.80;;;;;;4938183;28;20038;-77
2022/04/24 11:09:32;;;;;;;3.90;3.05;;;21.00;35.00;;;;;;4960522;28;20035;-78
2022/04/24 11:12:07;;;;;;;3.65;2.88;;;21.10;35.30;;;;;;4957256;28;20109;-77
2022/04/24 11:14:35;;;;;;;5.72;2.85;;;20.90;33.90;;;;;;4947041;28;20046;-77
2022/04/24 11:17:02;;;;;;;7.68;3.35;;;20.90;34.60;;;;;;4960410;28;20031;-77
2022/04/24 11:19:28;;;;;;;4.88;3.05;;;21.00;34.40;;;;;;4960267;28;20035;-77
2022/04/24 11:22:20;;;;;;;5.35;3.20;;;21.10;34.20;;;;;;4956567;28;20031;-77
2022/04/24 11:24:46;;;;;;;6.60;2.72;;;21.00;34.50;;;;;;4934843;28;20058;-71
2022/04/24 11:27:13;;;;;;;6.15;2.80;;;21.00;34.30;;;;;;4952144;28;20054;-76
2022/04/24 11:29:42;;;;;;;7.63;3.20;;;20.90;34.10;;;;;;4958624;28;20032;-75
2022/04/24 11:32:08;;;;;;;4.00;2.78;;;20.80;34.60;;;;;;4959787;28;20077;-75
2022/04/24 11:34:35;;;;;;;5.10;2.67;;;20.70;34.40;;;;;;4955120;28;20027;-76
2022/04/24 11:37:01;;;;;;;2.85;2.38;;;20.80;35.10;;;;;;4961120;28;20814;-78
2022/04/24 11:39:27;;;;;;;3.70;2.65;;;21.10;36.00;;;;;;4958865;28;20034;-74
2022/04/24 11:42:00;;;;;;;4.40;2.67;;;21.50;35.00;;;;;;4957577;28;20027;-74
2022/04/24 11:50:14;;;;;;;3.65;2.40;;;21.70;34.00;;;;;;4955899;28;20027;-74
2022/04/24 11:52:46;;;;;;;5.35;2.17;;;21.90;33.90;;;;;;4952325;28;20483;-74
2022/04/24 11:55:19;;;;;;;5.03;2.70;;;22.30;34.10;;;;;;4954031;28;20058;-74
2022/04/24 11:57:59;;;;;;;5.90;2.90;;;22.80;34.20;;;;;;4959763;28;20114;-75
2022/04/24 12:00:38;;;;;;;3.35;2.72;;;22.70;34.00;;;;;;4958690;28;20105;-74
2022/04/24 12:03:08;;;;;;;6.05;3.05;;;22.40;35.50;;;;;;4956048;28;20651;-74
2022/04/24 12:05:34;;;;;;;5.68;3.17;;;22.00;35.10;;;;;;4956610;28;20380;-73
2022/04/24 12:08:01;;;;;;;3.50;2.22;;;21.60;36.20;;;;;;4958272;28;20875;-74
2022/04/24 12:10:26;;;;;;;6.22;2.75;;;21.40;37.20;;;;;;4953844;28;20786;-73
2022/04/24 12:12:53;;;;;;;3.67;2.70;;;21.50;36.90;;;;;;4961798;28;20080;-73
2022/04/24 12:15:22;;;;;;;4.50;2.20;;;21.60;37.60;;;;;;4955013;28;20066;-74
2022/04/24 12:17:49;;;;;;;7.72;2.80;;;21.80;36.10;;;;;;4951908;28;20079;-74
2022/04/24 12:20:14;;;;;;;6.40;2.90;;;21.90;36.00;;;;;;4955596;28;20046;-74
2022/04/24 12:22:40;;;;;;;3.50;2.78;;;21.80;36.00;;;;;;4958610;28;20034;-73
2022/04/24 12:25:18;;;;;;;14.15;8.30;;;21.90;35.40;;;;;;4955886;28;20027;-73
2022/04/24 12:27:54;;;;;;;3.97;2.78;;;21.70;36.00;;;;;;4957199;28;20089;-73
2022/04/24 12:30:19;;;;;;;;;;;21.40;37.10;;;;;;4957844;28;20037;-74
2022/04/24 12:32:46;;;;;;;6.13;2.85;;;21.00;36.30;;;;;;4954811;28;19914;-73
2022/04/24 12:35:28;;;;;;;6.35;2.80;;;20.60;36.80;;;;;;4957384;28;20035;-73
2022/04/24 12:37:54;;;;;;;3.90;2.42;;;20.60;37.10;;;;;;4959121;28;20416;-74
2022/04/24 12:40:21;;;;;;;7.38;2.60;;;20.60;37.60;;;;;;4957307;28;20038;-70
2022/04/24 12:42:51;;;;;;;4.82;2.65;;;20.50;37.20;;;;;;4960060;28;20085;-80
2022/04/24 12:45:17;;;;;;;4.40;2.58;;;20.70;37.20;;;;;;4961664;28;20031;-73
2022/04/24 12:47:43;;;;;;;4.68;2.63;;;20.70;36.70;;;;;;4957468;28;20594;-75
2022/04/24 12:50:09;;;;;;;4.65;2.88;;;20.60;36.50;;;;;;4958423;28;20031;-74
2022/04/24 12:52:35;;;;;;;5.18;2.33;;;20.60;36.20;;;;;;4962260;28;20114;-75
2022/04/24 12:55:01;;;;;;;4.22;2.45;;;20.50;36.60;;;;;;4961507;28;20479;-73
2022/04/24 12:57:27;;;;;;;5.78;2.30;;;20.40;37.70;;;;;;4960640;28;20027;-72
2022/04/24 12:59:52;;;;;;;4.35;2.60;;;20.20;36.80;;;;;;4962502;28;20031;-76